createdAt,value
2023-08-03T00:01:41.453Z,99380.25
2023-08-03T00:04:44.525Z,99385.63
2023-08-03T00:07:50.673Z,99383.94
2023-08-03T00:10:52.941Z,99383.88
2023-08-03T00:13:55.214Z,99377.34
2023-08-03T00:16:57.526Z,99377.72
2023-08-03T00:20:01.970Z,99384.50
2023-08-03T00:23:04.315Z,99385.63
2023-08-03T00:26:06.622Z,99387.81
2023-08-03T00:29:08.987Z,99390.88
2023-08-03T00:32:11.334Z,99389.13
2023-08-03T00:35:13.682Z,99392.81
2023-08-03T00:38:16.043Z,99386.25
2023-08-03T00:41:18.353Z,99387.75
2023-08-03T00:44:20.779Z,99388.50
2023-08-03T00:47:23.323Z,99393.47
2023-08-03T00:50:27.264Z,99390.28
2023-08-03T00:53:31.165Z,99377.59
2023-08-03T00:56:33.733Z,99390.97
2023-08-03T00:59:36.647Z,99383.47
2023-08-03T01:02:39.035Z,99370.16
2023-08-03T01:05:41.441Z,99369.28
2023-08-03T01:08:43.896Z,99372.69
2023-08-03T01:11:47.280Z,99377.25
2023-08-03T01:14:49.841Z,99378.13
2023-08-03T01:17:52.331Z,99378.88
2023-08-03T01:20:55.191Z,99389.41
2023-08-03T01:23:59.207Z,99387.94
2023-08-03T01:27:03.168Z,99382.72
2023-08-03T01:30:06.414Z,99374.06
2023-08-03T01:33:08.954Z,99379.50
2023-08-03T01:36:12.116Z,99375.50
2023-08-03T01:39:14.652Z,99367.69
2023-08-03T01:42:16.946Z,99366.72
2023-08-03T01:45:21.203Z,99359.28
2023-08-03T01:48:23.566Z,99363.53
2023-08-03T01:51:25.904Z,99353.88
2023-08-03T01:54:28.435Z,99366.00
2023-08-03T01:57:30.713Z,99367.88
2023-08-03T02:00:33.089Z,99356.34
2023-08-03T02:03:36.444Z,99353.88
2023-08-03T02:06:39.605Z,99356.69
2023-08-03T02:09:42.025Z,99351.78
2023-08-03T02:12:44.436Z,99362.63
2023-08-03T02:15:47.551Z,99352.78
2023-08-03T02:18:50.360Z,99353.09
2023-08-03T02:21:52.727Z,99358.31
2023-08-03T02:24:55.052Z,99353.94
2023-08-03T02:27:57.507Z,99353.56
2023-08-03T02:30:59.926Z,99351.28
2023-08-03T02:34:10.791Z,99357.97
2023-08-03T02:37:17.944Z,99355.34
2023-08-03T02:40:22.441Z,99362.97
2023-08-03T02:43:27.535Z,99368.66
2023-08-03T02:46:31.761Z,99370.94
2023-08-03T02:49:35.008Z,99373.81
2023-08-03T02:52:41.069Z,99377.75
2023-08-03T02:55:43.608Z,99378.66
2023-08-03T02:58:46.914Z,99377.31
2023-08-03T03:01:58.587Z,99373.03
2023-08-03T03:05:07.309Z,99380.53
2023-08-03T03:08:12.292Z,99384.75
2023-08-03T03:11:14.837Z,99388.06
2023-08-03T03:14:17.275Z,99392.41
2023-08-03T03:17:19.840Z,99393.88
2023-08-03T03:20:24.456Z,99391.72
2023-08-03T03:23:26.907Z,99381.78
2023-08-03T03:26:29.280Z,99380.94
2023-08-03T03:29:31.703Z,99373.34
2023-08-03T03:32:34.250Z,99393.09
2023-08-03T03:35:36.838Z,99396.66
2023-08-03T03:38:39.364Z,99397.66
2023-08-03T03:41:41.741Z,99398.84
2023-08-03T03:44:44.268Z,99388.16
2023-08-03T03:47:46.826Z,99403.16
2023-08-03T03:50:49.239Z,99395.19
2023-08-03T03:53:53.968Z,99384.16
2023-08-03T03:56:56.517Z,99400.59
2023-08-03T04:00:06.066Z,99392.03
2023-08-03T04:03:17.055Z,99385.28
2023-08-03T04:06:19.628Z,99395.34
2023-08-03T04:09:22.338Z,99397.25
2023-08-03T04:12:24.684Z,99387.47
2023-08-03T04:15:27.066Z,99392.44
2023-08-03T04:18:29.519Z,99387.50
2023-08-03T04:21:32.639Z,99394.13
2023-08-03T04:24:35.038Z,99384.63
2023-08-03T04:27:38.192Z,99387.44
2023-08-03T04:30:42.540Z,99384.53
2023-08-03T04:33:46.817Z,99382.88
2023-08-03T04:36:49.335Z,99376.75
2023-08-03T04:39:51.946Z,99374.25
2023-08-03T04:42:54.579Z,99366.47
2023-08-03T04:45:57.511Z,99382.34
2023-08-03T04:49:00.202Z,99375.53
2023-08-03T04:52:05.729Z,99371.13
2023-08-03T04:55:08.625Z,99376.84
2023-08-03T04:58:11.159Z,99392.28
2023-08-03T05:01:15.863Z,99391.59
2023-08-03T05:04:18.693Z,99397.03
2023-08-03T05:07:22.187Z,99399.88
2023-08-03T05:10:24.670Z,99398.41
2023-08-03T05:13:27.251Z,99403.88
2023-08-03T05:16:29.963Z,99395.78
2023-08-03T05:19:33.094Z,99401.28
2023-08-03T05:22:35.389Z,99386.72
2023-08-03T05:25:37.720Z,99387.09
2023-08-03T05:28:40.109Z,99385.19
2023-08-03T05:31:42.891Z,99382.13
2023-08-03T05:34:45.621Z,99368.63
2023-08-03T05:37:48.036Z,99380.19
2023-08-03T05:40:51.905Z,99377.34
2023-08-03T05:43:54.586Z,99380.34
2023-08-03T05:46:57.070Z,99388.75
2023-08-03T05:49:59.444Z,99383.41
2023-08-03T05:53:05.194Z,99398.06
2023-08-03T05:56:12.811Z,99392.34
2023-08-03T05:59:23.127Z,99389.44
2023-08-03T06:02:36.261Z,99392.78
2023-08-03T06:05:46.698Z,99394.06
2023-08-03T06:08:52.151Z,99397.13
2023-08-03T06:11:54.522Z,99398.38
2023-08-03T06:14:56.910Z,99401.81
2023-08-03T06:18:04.591Z,99407.13
2023-08-03T06:21:07.068Z,99391.19
2023-08-03T06:24:09.364Z,99396.53
2023-08-03T06:27:13.090Z,99395.22
2023-08-03T06:30:15.800Z,99390.03
2023-08-03T06:33:25.121Z,99398.69
2023-08-03T06:36:28.664Z,99399.91
2023-08-03T06:39:31.001Z,99400.69
2023-08-03T06:42:33.299Z,99407.00
2023-08-03T06:45:36.302Z,99410.56
2023-08-03T06:48:41.641Z,99406.53
2023-08-03T06:51:44.524Z,99416.50
2023-08-03T06:54:47.493Z,99418.28
2023-08-03T06:57:50.206Z,99415.22
2023-08-03T07:00:54.860Z,99421.47
2023-08-03T07:03:57.316Z,99421.16
2023-08-03T07:06:59.701Z,99429.19
2023-08-03T07:10:02.118Z,99436.63
2023-08-03T07:13:05.637Z,99440.88
2023-08-03T07:16:11.191Z,99440.41
2023-08-03T07:19:14.394Z,99446.81
2023-08-03T07:22:16.837Z,99443.88
2023-08-03T07:25:19.175Z,99455.47
2023-08-03T07:28:21.620Z,99448.00
2023-08-03T07:31:25.668Z,99461.13
2023-08-03T07:34:28.020Z,99459.22
2023-08-03T07:37:30.281Z,99463.41
2023-08-03T07:40:32.576Z,99462.72
2023-08-03T07:43:34.860Z,99471.22
2023-08-03T07:46:37.489Z,99473.88
2023-08-03T07:49:39.870Z,99478.91
2023-08-03T07:52:42.252Z,99482.34
2023-08-03T07:55:47.560Z,99494.63
2023-08-03T07:58:52.614Z,99483.44
2023-08-03T08:01:54.991Z,99488.84
2023-08-03T08:04:57.363Z,99491.03
2023-08-03T08:07:59.781Z,99495.13
2023-08-03T08:11:11.012Z,99489.97
2023-08-03T08:14:15.139Z,99505.81
2023-08-03T08:17:17.640Z,99503.88
2023-08-03T08:20:20.186Z,99510.03
2023-08-03T08:23:23.234Z,99509.31
2023-08-03T08:26:26.818Z,99511.22
2023-08-03T08:29:29.236Z,99521.53
2023-08-03T08:32:31.833Z,99528.84
2023-08-03T08:35:34.356Z,99521.34
2023-08-03T08:38:36.673Z,99535.97
2023-08-03T08:41:43.010Z,99539.72
2023-08-03T08:44:45.859Z,99530.00
2023-08-03T08:47:48.745Z,99538.56
2023-08-03T08:57:08.390Z,99533.09
2023-08-03T09:00:12.702Z,99530.88
2023-08-03T09:03:16.977Z,99534.47
2023-08-03T09:09:29.323Z,99539.94
2023-08-03T09:12:31.938Z,99544.16
2023-08-03T09:15:43.877Z,99545.31
2023-08-03T09:18:46.368Z,99548.78
2023-08-03T09:25:09.970Z,99555.34
2023-08-03T09:34:49.526Z,99563.31
2023-08-03T09:37:54.442Z,99557.56
2023-08-03T09:40:47.459Z,99552.56
2023-08-03T09:40:56.834Z,99561.34
2023-08-03T09:44:00.209Z,99553.94
2023-08-03T09:47:03.339Z,99559.69
2023-08-03T09:50:05.918Z,99571.69
2023-08-03T09:53:16.810Z,99565.56
2023-08-03T09:56:26.110Z,99575.63
2023-08-03T09:59:34.045Z,99583.13
2023-08-03T10:02:44.508Z,99565.88
2023-08-03T10:06:00.716Z,99571.38
2023-08-03T10:09:05.450Z,99573.41
2023-08-03T10:12:13.847Z,99578.19
2023-08-03T10:15:18.177Z,99585.81
2023-08-03T10:18:38.353Z,99576.81
2023-08-03T10:21:44.700Z,99585.88
2023-08-03T10:25:17.310Z,99578.38
2023-08-03T10:28:21.173Z,99573.09
2023-08-03T10:31:23.554Z,99576.09
2023-08-03T10:34:30.465Z,99575.84
2023-08-03T10:37:32.793Z,99570.72
2023-08-03T10:40:35.119Z,99568.06
2023-08-03T10:43:37.631Z,99561.97
2023-08-03T10:46:50.710Z,99578.53
2023-08-03T10:49:54.911Z,99571.84
2023-08-03T10:52:57.270Z,99577.09
2023-08-03T10:56:11.911Z,99565.72
2023-08-03T10:59:14.433Z,99561.59
2023-08-03T11:02:23.514Z,99567.09
2023-08-03T11:05:26.104Z,99564.19
2023-08-03T11:08:28.575Z,99574.78
2023-08-03T11:11:34.142Z,99572.19
2023-08-03T11:14:37.012Z,99575.56
2023-08-03T11:17:43.484Z,99576.09
2023-08-03T11:20:49.639Z,99580.50
2023-08-03T11:23:52.462Z,99589.06
2023-08-03T11:26:55.009Z,99592.16
2023-08-03T11:30:00.810Z,99600.28
2023-08-03T11:33:03.224Z,99604.00
2023-08-03T11:36:05.994Z,99615.44
2023-08-03T11:39:08.794Z,99614.63
2023-08-03T11:42:12.049Z,99620.22
2023-08-03T11:45:14.388Z,99632.00
2023-08-03T11:48:20.678Z,99628.88
2023-08-03T11:51:34.642Z,99631.94
2023-08-03T11:54:39.354Z,99634.91
2023-08-03T11:58:00.196Z,99628.22
2023-08-03T12:01:05.964Z,99637.78
2023-08-03T12:10:19.751Z,99631.84
2023-08-03T12:13:22.202Z,99634.66
2023-08-03T12:16:24.666Z,99633.06
2023-08-03T12:19:35.224Z,99643.31
2023-08-03T12:22:38.201Z,99650.72
2023-08-03T12:25:42.558Z,99649.22
2023-08-03T12:28:45.126Z,99644.44
2023-08-03T12:31:47.751Z,99637.22
2023-08-03T12:34:50.565Z,99646.38
2023-08-03T12:37:57.992Z,99649.88
2023-08-03T12:41:01.369Z,99644.34
2023-08-03T12:44:03.831Z,99661.00
2023-08-03T12:47:09.122Z,99666.34
2023-08-03T12:50:12.512Z,99660.09
2023-08-03T12:53:15.437Z,99660.88
2023-08-03T12:56:19.237Z,99658.22
2023-08-03T12:59:24.559Z,99667.38
2023-08-03T13:02:30.241Z,99684.09
2023-08-03T13:05:34.055Z,99683.09
2023-08-03T13:08:36.480Z,99684.41
2023-08-03T13:11:38.831Z,99677.03
2023-08-03T13:14:41.609Z,99662.34
2023-08-03T13:17:44.037Z,99652.19
2023-08-03T13:20:49.369Z,99646.34
2023-08-03T13:23:52.483Z,99650.69
2023-08-03T13:27:12.530Z,99665.22
2023-08-03T13:30:15.644Z,99674.28
2023-08-03T13:33:18.058Z,99661.59
2023-08-03T13:36:20.686Z,99659.78
2023-08-03T13:39:23.099Z,99664.25
2023-08-03T13:42:25.448Z,99672.00
2023-08-03T13:45:27.735Z,99673.13
2023-08-03T13:48:30.214Z,99686.75
2023-08-03T13:51:32.598Z,99684.91
2023-08-03T13:54:34.885Z,99687.66
2023-08-03T13:57:41.849Z,99673.59
2023-08-03T14:00:47.268Z,99664.41
2023-08-03T14:03:49.903Z,99668.44
2023-08-03T14:13:03.380Z,99663.38
2023-08-03T14:19:16.869Z,99670.03
2023-08-03T14:22:19.222Z,99678.63
2023-08-03T14:31:32.809Z,99665.44
2023-08-03T14:37:41.134Z,99688.25
2023-08-03T14:40:48.522Z,99681.34
2023-08-03T14:43:51.590Z,99674.25
2023-08-03T14:47:00.720Z,99658.44
2023-08-03T14:53:09.777Z,99670.44
2023-08-03T14:59:17.377Z,99666.94
2023-08-03T15:02:20.739Z,99664.34
2023-08-03T15:05:23.622Z,99664.19
2023-08-03T15:08:26.150Z,99662.53
2023-08-03T15:11:28.657Z,99677.66
2023-08-03T15:14:31.219Z,99676.28
2023-08-03T15:17:38.192Z,99669.59
2023-08-03T15:20:42.922Z,99677.16
2023-08-03T15:23:48.055Z,99677.38
2023-08-03T15:26:56.151Z,99680.56
2023-08-03T15:30:01.012Z,99694.97
2023-08-03T15:36:12.820Z,99684.16
2023-08-03T15:39:19.065Z,99688.72
2023-08-03T15:42:26.502Z,99691.78
2023-08-03T15:45:35.742Z,99695.25
2023-08-03T15:51:47.835Z,99698.75
2023-08-03T15:54:57.446Z,99699.28
2023-08-03T15:58:16.175Z,99706.66
2023-08-03T16:01:18.767Z,99705.19
2023-08-03T16:04:21.326Z,99699.06
2023-08-03T16:07:23.765Z,99691.78
2023-08-03T16:10:26.157Z,99684.06
2023-08-03T16:13:32.579Z,99683.41
2023-08-03T16:16:35.050Z,99676.88
2023-08-03T16:19:39.902Z,99690.38
2023-08-03T16:22:42.389Z,99697.09
2023-08-03T16:25:44.711Z,99693.34
2023-08-03T16:28:47.105Z,99692.31
2023-08-03T16:34:56.779Z,99698.94
2023-08-03T16:38:01.248Z,99702.06
2023-08-03T16:41:06.561Z,99706.31
2023-08-03T16:44:09.014Z,99708.28
2023-08-03T16:47:11.997Z,99701.38
2023-08-03T16:50:14.531Z,99689.06
2023-08-03T16:53:16.831Z,99689.53
2023-08-03T16:56:19.177Z,99693.84
2023-08-03T16:59:21.588Z,99693.84
2023-08-03T17:02:23.864Z,99693.44
2023-08-03T17:05:26.856Z,99695.78
2023-08-03T17:08:29.239Z,99698.13
2023-08-03T17:11:34.370Z,99691.94
2023-08-03T17:14:37.936Z,99695.81
2023-08-03T17:17:40.320Z,99712.75
2023-08-03T17:20:42.719Z,99719.25
2023-08-03T17:23:45.117Z,99715.75
2023-08-03T17:26:49.486Z,99713.00
2023-08-03T17:29:51.897Z,99735.91
2023-08-03T17:32:54.644Z,99719.88
2023-08-03T17:35:57.289Z,99718.38
2023-08-03T17:39:00.085Z,99746.78
2023-08-03T17:42:02.439Z,99748.06
2023-08-03T17:45:05.185Z,99742.56
2023-08-03T17:48:07.609Z,99744.13
2023-08-03T17:51:12.381Z,99705.91
2023-08-03T17:54:14.742Z,99700.06
2023-08-03T17:57:17.075Z,99714.22
2023-08-03T18:00:19.608Z,99718.03
2023-08-03T18:03:22.074Z,99725.97
2023-08-03T18:06:26.646Z,99751.16
2023-08-03T18:09:29.858Z,99749.69
2023-08-03T18:12:32.543Z,99733.75
2023-08-03T18:15:36.249Z,99741.09
2023-08-03T18:18:40.834Z,99745.50
2023-08-03T18:21:43.419Z,99754.72
2023-08-03T18:24:49.143Z,99754.53
2023-08-03T18:27:51.614Z,99749.91
2023-08-03T18:31:20.577Z,99744.28
2023-08-03T18:34:22.988Z,99749.69
2023-08-03T18:37:25.514Z,99746.88
2023-08-03T18:40:30.043Z,99754.84
2023-08-03T18:43:34.218Z,99767.84
2023-08-03T18:46:37.189Z,99762.06
2023-08-03T18:49:39.528Z,99766.06
2023-08-03T18:52:41.865Z,99789.91
2023-08-03T18:55:44.332Z,99790.53
2023-08-03T18:58:48.849Z,99788.78
2023-08-03T19:01:51.373Z,99786.00
2023-08-03T19:04:53.789Z,99794.16
2023-08-03T19:07:56.054Z,99790.28
2023-08-03T19:10:59.782Z,99812.22
2023-08-03T19:14:03.230Z,99805.97
2023-08-03T19:17:08.093Z,99813.34
2023-08-03T19:20:13.819Z,99821.09
2023-08-03T19:23:16.867Z,99840.66
2023-08-03T19:26:19.739Z,99837.75
2023-08-03T19:29:23.638Z,99848.03
2023-08-03T19:32:26.541Z,99842.91
2023-08-03T19:35:29.588Z,99822.16
2023-08-03T19:38:33.798Z,99830.38
2023-08-03T19:41:36.237Z,99817.94
2023-08-03T19:44:38.530Z,99805.78
2023-08-03T19:47:40.922Z,99848.19
2023-08-03T19:53:48.442Z,99838.75
2023-08-03T19:56:52.854Z,99851.22
2023-08-03T20:09:11.311Z,99844.53
2023-08-03T20:12:13.756Z,99847.56
2023-08-03T20:15:17.078Z,99845.47
2023-08-03T20:18:22.518Z,99842.63
2023-08-03T20:21:24.972Z,99814.47
2023-08-03T20:24:27.364Z,99832.47
2023-08-03T20:27:29.828Z,99842.75
2023-08-03T20:30:32.181Z,99844.13
2023-08-03T20:33:34.552Z,99840.16
2023-08-03T20:36:38.065Z,99852.03
2023-08-03T20:39:40.795Z,99839.72
2023-08-03T20:42:43.209Z,99844.63
2023-08-03T20:45:49.648Z,99851.09
2023-08-03T20:48:52.722Z,99825.94
2023-08-03T20:51:55.151Z,99810.38
2023-08-03T20:54:57.902Z,99816.97
2023-08-03T20:58:00.943Z,99809.50
2023-08-03T21:01:03.377Z,99811.03
2023-08-03T21:04:05.981Z,99807.25
2023-08-03T21:07:08.423Z,99802.53
2023-08-03T21:13:16.428Z,99802.78
2023-08-03T21:16:18.935Z,99792.16
2023-08-03T21:19:23.304Z,99799.88
2023-08-03T21:22:25.679Z,99789.47
2023-08-03T21:25:28.032Z,99791.69
2023-08-03T21:28:30.370Z,99792.72
2023-08-03T21:31:38.291Z,99799.94
2023-08-03T21:34:41.744Z,99792.06
2023-08-03T21:37:46.065Z,99784.66
2023-08-03T21:40:49.296Z,99765.56
2023-08-03T21:43:51.810Z,99765.38
2023-08-03T21:46:54.241Z,99770.97
2023-08-03T21:49:57.992Z,99766.09
2023-08-03T21:53:00.298Z,99767.13
2023-08-03T21:56:02.707Z,99773.22
2023-08-03T21:59:05.128Z,99785.81
2023-08-03T22:02:08.343Z,99786.69
2023-08-03T22:05:12.537Z,99800.53
2023-08-03T22:08:15.196Z,99811.97
2023-08-03T22:11:19.413Z,99839.91
2023-08-03T22:14:21.877Z,99900.53
2023-08-03T22:17:24.191Z,99939.69
2023-08-03T22:20:26.549Z,99920.00
2023-08-03T22:23:28.972Z,99892.34
2023-08-03T22:26:31.336Z,99857.28
2023-08-03T22:29:33.753Z,99878.47
2023-08-03T22:32:36.224Z,99867.41
2023-08-03T22:35:38.632Z,99848.72
2023-08-03T22:38:45.907Z,99834.06
2023-08-03T22:41:48.564Z,99824.78
2023-08-03T22:44:51.219Z,99807.88
2023-08-03T22:51:16.803Z,99810.75
2023-08-03T22:54:19.323Z,99810.66
2023-08-03T22:57:22.015Z,99805.88
2023-08-03T23:00:24.400Z,99799.91
2023-08-03T23:03:28.848Z,99792.88
2023-08-03T23:06:31.290Z,99792.66
2023-08-03T23:09:34.169Z,99805.88
2023-08-03T23:12:38.168Z,99818.09
2023-08-03T23:15:40.909Z,99823.09
2023-08-03T23:18:43.198Z,99823.28
2023-08-03T23:21:45.639Z,99811.06
2023-08-03T23:24:48.907Z,99813.66
2023-08-03T23:27:51.212Z,99823.38
2023-08-03T23:30:53.541Z,99812.84
2023-08-03T23:33:55.872Z,99810.25
2023-08-03T23:36:58.380Z,99825.34
2023-08-03T23:40:00.698Z,99838.00
2023-08-03T23:43:03.032Z,99830.91
2023-08-03T23:46:05.454Z,99829.59
2023-08-03T23:49:07.760Z,99823.81
2023-08-03T23:52:10.136Z,99818.84
2023-08-03T23:55:12.579Z,99825.81
2023-08-03T23:58:14.861Z,99830.34
